createdAt,value
2022-09-28T00:00:19.368Z,4.40
2022-09-28T00:02:46.122Z,4.60
2022-09-28T00:05:12.913Z,4.60
2022-09-28T00:07:40.299Z,4.50
2022-09-28T00:10:07.541Z,4.70
2022-09-28T00:12:35.623Z,4.70
2022-09-28T00:15:06.631Z,4.70
2022-09-28T00:17:34.094Z,4.80
2022-09-28T00:20:01.515Z,4.90
2022-09-28T00:22:28.834Z,5.00
2022-09-28T00:24:55.553Z,5.00
2022-09-28T00:27:22.315Z,5.00
2022-09-28T00:29:51.006Z,5.10
2022-09-28T00:32:17.744Z,5.00
2022-09-28T00:34:44.976Z,5.10
2022-09-28T00:37:13.743Z,5.10
2022-09-28T00:39:40.843Z,5.10
2022-09-28T00:42:13.011Z,5.10
2022-09-28T00:44:43.569Z,5.10
2022-09-28T00:47:31.092Z,5.10
2022-09-28T00:50:02.825Z,5.20
2022-09-28T00:52:38.768Z,5.20
2022-09-28T00:55:09.650Z,5.20
2022-09-28T00:57:37.743Z,5.10
2022-09-28T01:00:05.552Z,5.20
2022-09-28T01:02:34.345Z,5.10
2022-09-28T01:05:03.254Z,5.10
2022-09-28T01:07:31.991Z,5.00
2022-09-28T01:09:59.516Z,4.90
2022-09-28T01:12:26.288Z,5.00
2022-09-28T01:14:53.060Z,4.80
2022-09-28T01:17:26.469Z,4.90
2022-09-28T01:20:38.170Z,4.90
2022-09-28T01:23:42.923Z,4.90
2022-09-28T01:26:42.431Z,4.80
2022-09-28T01:29:17.573Z,4.80
2022-09-28T01:31:49.045Z,4.80
2022-09-28T01:34:23.644Z,4.80
2022-09-28T01:36:55.065Z,4.60
2022-09-28T01:39:28.757Z,4.40
2022-09-28T01:42:01.388Z,4.60
2022-09-28T01:44:31.775Z,4.50
2022-09-28T01:47:01.011Z,4.70
2022-09-28T01:49:33.905Z,4.50
2022-09-28T01:52:05.947Z,4.40
2022-09-28T01:54:38.803Z,4.40
2022-09-28T01:57:11.243Z,4.20
2022-09-28T01:59:43.379Z,4.40
2022-09-28T02:02:14.158Z,4.20
2022-09-28T02:04:45.463Z,4.50
2022-09-28T02:07:18.024Z,4.50
2022-09-28T02:09:49.302Z,4.40
2022-09-28T02:12:23.339Z,4.60
2022-09-28T02:14:55.607Z,4.70
2022-09-28T02:17:22.415Z,4.70
2022-09-28T02:19:49.175Z,4.80
2022-09-28T02:22:24.662Z,4.90
2022-09-28T02:24:56.180Z,4.90
2022-09-28T02:27:35.915Z,5.00
2022-09-28T02:30:04.766Z,5.10
2022-09-28T02:32:35.198Z,5.20
2022-09-28T02:35:02.034Z,5.20
2022-09-28T02:37:28.884Z,5.30
2022-09-28T02:39:56.206Z,5.30
2022-09-28T02:42:28.406Z,5.40
2022-09-28T02:45:07.962Z,5.40
2022-09-28T02:47:49.795Z,5.40
2022-09-28T02:50:24.487Z,5.50
2022-09-28T02:53:17.214Z,5.50
2022-09-28T02:55:59.541Z,5.40
2022-09-28T02:58:37.583Z,5.50
2022-09-28T03:01:13.973Z,5.40
2022-09-28T03:03:46.872Z,5.40
2022-09-28T03:06:18.607Z,5.30
2022-09-28T03:08:51.928Z,5.20
2022-09-28T03:11:22.465Z,5.20
2022-09-28T03:13:52.167Z,5.20
2022-09-28T03:16:19.643Z,5.30
2022-09-28T03:18:47.603Z,5.30
2022-09-28T03:21:15.619Z,5.40
2022-09-28T03:23:42.547Z,5.40
2022-09-28T03:26:11.483Z,5.40
2022-09-28T03:28:39.134Z,5.40
2022-09-28T03:31:07.341Z,5.40
2022-09-28T03:33:34.157Z,5.50
2022-09-28T03:36:01.755Z,5.40
2022-09-28T03:38:28.616Z,5.40
2022-09-28T03:40:56.658Z,5.30
2022-09-28T03:43:25.242Z,5.20
2022-09-28T03:45:55.513Z,5.20
2022-09-28T03:48:28.711Z,5.10
2022-09-28T03:51:00.836Z,4.90
2022-09-28T03:53:28.119Z,4.80
2022-09-28T03:55:55.328Z,4.70
2022-09-28T03:58:23.286Z,4.70
2022-09-28T04:00:50.272Z,4.60
2022-09-28T04:03:17.160Z,4.60
2022-09-28T04:05:52.973Z,4.50
2022-09-28T04:08:20.148Z,4.50
2022-09-28T04:10:47.511Z,4.70
2022-09-28T04:13:14.715Z,4.60
2022-09-28T04:15:41.558Z,4.30
2022-09-28T04:18:10.322Z,4.30
2022-09-28T04:20:37.298Z,4.40
2022-09-28T04:23:20.243Z,4.20
2022-09-28T04:25:51.731Z,4.30
2022-09-28T04:28:19.087Z,4.30
2022-09-28T04:30:46.655Z,4.00
2022-09-28T04:33:13.391Z,3.90
2022-09-28T04:35:41.043Z,3.90
2022-09-28T04:38:09.604Z,4.10
2022-09-28T04:40:36.424Z,3.90
2022-09-28T04:43:04.109Z,3.70
2022-09-28T04:45:30.833Z,3.70
2022-09-28T04:47:57.574Z,3.70
2022-09-28T04:50:24.925Z,3.70
2022-09-28T04:52:51.684Z,3.60
2022-09-28T04:55:19.750Z,3.60
2022-09-28T04:57:47.059Z,3.60
2022-09-28T05:00:14.657Z,3.60
2022-09-28T05:02:41.511Z,3.50
2022-09-28T05:05:09.147Z,3.60
2022-09-28T05:07:35.871Z,3.40
2022-09-28T05:10:02.649Z,3.50
2022-09-28T05:12:31.319Z,3.50
2022-09-28T05:14:58.058Z,3.60
2022-09-28T05:17:25.084Z,3.50
2022-09-28T05:19:52.567Z,3.60
2022-09-28T05:22:19.271Z,3.70
2022-09-28T05:24:45.997Z,3.50
2022-09-28T05:27:13.350Z,3.70
2022-09-28T05:29:41.515Z,3.70
2022-09-28T05:32:08.308Z,3.60
2022-09-28T05:34:35.679Z,3.50
2022-09-28T05:37:02.404Z,3.40
2022-09-28T05:39:29.123Z,3.40
2022-09-28T05:41:56.531Z,3.30
2022-09-28T05:44:23.503Z,3.40
2022-09-28T05:46:53.416Z,3.40
2022-09-28T05:49:20.752Z,3.40
2022-09-28T05:51:47.842Z,3.40
2022-09-28T05:54:14.728Z,3.60
2022-09-28T05:56:42.123Z,3.50
2022-09-28T05:59:08.865Z,3.60
2022-09-28T06:01:35.633Z,3.60
2022-09-28T06:04:04.307Z,3.70
2022-09-28T06:06:31.039Z,3.80
2022-09-28T06:08:57.934Z,4.00
2022-09-28T06:11:26.451Z,4.00
2022-09-28T06:13:53.915Z,4.00
2022-09-28T06:16:20.908Z,4.10
2022-09-28T06:18:48.412Z,4.10
2022-09-28T06:21:16.470Z,4.10
2022-09-28T06:23:48.225Z,4.30
2022-09-28T06:26:16.950Z,4.10
2022-09-28T06:28:43.867Z,4.10
2022-09-28T06:31:10.819Z,4.10
2022-09-28T06:33:38.299Z,4.20
2022-09-28T06:36:05.472Z,4.30
2022-09-28T06:38:33.585Z,4.40
2022-09-28T06:41:04.001Z,4.70
2022-09-28T06:43:34.229Z,4.90
2022-09-28T06:46:02.490Z,5.00
2022-09-28T06:48:38.414Z,5.20
2022-09-28T06:51:05.956Z,5.30
2022-09-28T06:53:34.063Z,5.30
2022-09-28T06:56:01.212Z,5.30
2022-09-28T06:58:28.693Z,5.20
2022-09-28T07:00:57.593Z,5.10
2022-09-28T07:03:24.490Z,5.20
2022-09-28T07:05:53.608Z,5.40
2022-09-28T07:08:22.264Z,5.50
2022-09-28T07:10:51.332Z,5.70
2022-09-28T07:13:44.617Z,5.90
2022-09-28T07:16:05.934Z,6.10
2022-09-28T07:18:33.376Z,6.80
2022-09-28T07:21:00.358Z,7.20
2022-09-28T07:23:27.220Z,7.60
2022-09-28T07:25:56.210Z,7.70
2022-09-28T07:28:24.136Z,7.40
2022-09-28T07:30:50.976Z,7.60
2022-09-28T07:33:21.362Z,7.80
2022-09-28T07:35:52.047Z,7.80
2022-09-28T07:38:19.999Z,8.00
2022-09-28T07:40:48.425Z,8.20
2022-09-28T07:43:17.157Z,8.30
2022-09-28T07:45:44.423Z,8.20
2022-09-28T07:50:38.902Z,8.50
2022-09-28T07:53:06.248Z,8.60
2022-09-28T07:55:32.968Z,8.70
2022-09-28T07:57:59.967Z,8.60
2022-09-28T08:00:33.321Z,8.40
2022-09-28T08:03:01.662Z,9.10
2022-09-28T08:05:29.461Z,9.40
2022-09-28T08:07:56.189Z,8.90
2022-09-28T08:10:25.219Z,9.40
2022-09-28T08:12:54.462Z,9.60
2022-09-28T08:15:21.383Z,9.20
2022-09-28T08:17:50.024Z,9.20
2022-09-28T08:20:17.366Z,9.50
2022-09-28T08:22:44.093Z,9.90
2022-09-28T08:25:11.048Z,9.50
2022-09-28T08:27:38.467Z,9.50
2022-09-28T08:30:06.465Z,10.30
2022-09-28T08:32:33.203Z,10.50
2022-09-28T08:35:01.899Z,10.50
2022-09-28T08:37:28.648Z,10.60
2022-09-28T08:39:58.112Z,10.50
2022-09-28T08:42:33.419Z,10.70
2022-09-28T08:45:07.469Z,11.00
2022-09-28T08:47:47.680Z,10.70
2022-09-28T08:50:20.373Z,11.20
2022-09-28T08:52:53.100Z,11.10
2022-09-28T08:55:28.534Z,11.20
2022-09-28T08:57:59.714Z,11.50
2022-09-28T09:00:33.588Z,11.50
2022-09-28T09:03:05.291Z,11.70
2022-09-28T09:05:45.894Z,12.00
2022-09-28T09:08:33.671Z,11.30
2022-09-28T09:11:07.912Z,11.20
2022-09-28T09:14:02.748Z,11.00
2022-09-28T09:16:37.376Z,10.90
2022-09-28T09:19:14.579Z,11.20
2022-09-28T09:21:47.759Z,11.60
2022-09-28T09:24:23.779Z,11.50
2022-09-28T09:26:57.763Z,12.00
2022-09-28T09:29:32.557Z,11.90
2022-09-28T09:32:16.414Z,11.10
2022-09-28T09:35:06.425Z,11.60
2022-09-28T09:37:58.849Z,11.90
2022-09-28T09:40:46.478Z,11.90
2022-09-28T09:43:35.900Z,11.70
2022-09-28T09:46:15.492Z,12.00
2022-09-28T09:48:49.425Z,12.10
2022-09-28T09:51:24.103Z,11.80
2022-09-28T09:53:57.210Z,12.30
2022-09-28T09:56:31.271Z,13.10
2022-09-28T09:59:05.244Z,13.50
2022-09-28T10:01:36.625Z,14.00
2022-09-28T10:04:06.150Z,13.30
2022-09-28T10:06:36.208Z,13.40
2022-09-28T10:09:06.298Z,12.70
2022-09-28T10:11:35.788Z,13.40
2022-09-28T10:14:02.815Z,14.40
2022-09-28T10:16:31.946Z,14.30
2022-09-28T10:18:59.900Z,14.10
2022-09-28T10:21:27.179Z,14.80
2022-09-28T10:23:57.226Z,14.60
2022-09-28T10:26:30.111Z,13.90
2022-09-28T10:29:01.015Z,14.00
2022-09-28T10:31:40.206Z,14.40
2022-09-28T10:34:08.099Z,13.90
2022-09-28T10:36:46.687Z,14.60
2022-09-28T10:39:29.259Z,15.40
2022-09-28T10:42:00.126Z,14.00
2022-09-28T10:44:27.310Z,13.70
2022-09-28T10:46:59.284Z,12.90
2022-09-28T10:49:27.253Z,13.20
2022-09-28T10:51:55.159Z,13.20
2022-09-28T10:54:23.420Z,14.10
2022-09-28T10:56:51.651Z,13.30
2022-09-28T10:59:37.177Z,13.70
2022-09-28T11:02:18.461Z,14.30
2022-09-28T11:04:51.683Z,13.90
2022-09-28T11:07:20.701Z,14.30
2022-09-28T11:09:48.960Z,13.50
2022-09-28T11:12:19.349Z,13.50
2022-09-28T11:14:49.627Z,13.10
2022-09-28T11:17:23.727Z,13.10
2022-09-28T11:19:51.115Z,14.50
2022-09-28T11:22:23.705Z,14.60
2022-09-28T11:24:51.018Z,13.60
2022-09-28T11:27:22.999Z,14.00
2022-09-28T11:29:57.899Z,13.80
2022-09-28T11:32:28.457Z,13.30
2022-09-28T11:35:00.185Z,13.10
2022-09-28T11:37:39.002Z,12.90
2022-09-28T11:40:16.663Z,12.80
2022-09-28T11:42:52.796Z,12.70
2022-09-28T11:45:39.950Z,12.80
2022-09-28T11:48:09.528Z,13.50
2022-09-28T11:50:46.529Z,14.20
2022-09-28T11:53:20.212Z,14.30
2022-09-28T11:55:53.726Z,15.10
2022-09-28T11:58:26.638Z,15.50
2022-09-28T12:01:00.961Z,15.40
2022-09-28T12:03:35.657Z,14.80
2022-09-28T12:06:06.475Z,15.10
2022-09-28T12:08:36.666Z,15.70
2022-09-28T12:11:10.374Z,16.60
2022-09-28T12:13:40.491Z,16.00
2022-09-28T12:16:38.930Z,16.40
2022-09-28T12:19:06.340Z,16.30
2022-09-28T12:21:38.803Z,15.60
2022-09-28T12:24:15.050Z,15.70
2022-09-28T12:26:47.143Z,15.90
2022-09-28T12:29:17.667Z,16.20
2022-09-28T12:31:57.294Z,15.90
2022-09-28T12:34:24.111Z,16.00
2022-09-28T12:37:06.810Z,16.60
2022-09-28T12:39:57.622Z,15.80
2022-09-28T12:42:45.985Z,16.30
2022-09-28T12:45:27.318Z,16.40
2022-09-28T12:48:21.356Z,16.40
2022-09-28T12:50:57.506Z,16.50
2022-09-28T12:53:39.432Z,14.10
2022-09-28T12:56:15.685Z,15.50
2022-09-28T12:59:01.864Z,15.20
2022-09-28T13:01:44.510Z,14.90
2022-09-28T13:04:38.863Z,14.10
2022-09-28T13:07:10.696Z,13.80
2022-09-28T13:09:46.067Z,13.20
2022-09-28T13:12:25.994Z,14.60
2022-09-28T13:15:13.680Z,15.70
2022-09-28T13:17:48.687Z,16.10
2022-09-28T13:20:29.447Z,15.50
2022-09-28T13:23:04.568Z,17.00
2022-09-28T13:25:34.361Z,17.00
2022-09-28T13:28:03.505Z,16.80
2022-09-28T13:30:32.252Z,14.10
2022-09-28T13:33:02.521Z,12.90
2022-09-28T13:35:31.856Z,12.60
2022-09-28T13:38:36.903Z,11.70
2022-09-28T13:41:17.649Z,10.80
2022-09-28T13:44:06.538Z,10.20
2022-09-28T13:46:41.133Z,10.20
2022-09-28T13:49:16.706Z,10.30
2022-09-28T13:52:01.134Z,10.40
2022-09-28T13:54:41.919Z,10.40
2022-09-28T13:57:20.082Z,10.20
2022-09-28T13:59:59.060Z,10.10
2022-09-28T14:02:35.206Z,9.90
2022-09-28T14:05:04.844Z,9.90
2022-09-28T14:07:51.996Z,9.70
2022-09-28T14:10:24.233Z,9.60
2022-09-28T14:12:51.695Z,8.80
2022-09-28T14:15:43.524Z,8.40
2022-09-28T14:18:24.599Z,8.30
2022-09-28T14:21:01.908Z,8.00
2022-09-28T14:23:45.578Z,7.70
2022-09-28T14:26:39.662Z,8.00
2022-09-28T14:29:19.194Z,8.00
2022-09-28T14:31:45.823Z,8.10
2022-09-28T14:34:31.532Z,8.10
2022-09-28T14:36:59.100Z,8.10
2022-09-28T14:39:30.004Z,8.00
2022-09-28T14:42:08.895Z,8.00
2022-09-28T14:45:09.653Z,8.10
2022-09-28T14:47:42.125Z,8.10
2022-09-28T14:50:23.558Z,8.20
2022-09-28T14:52:53.204Z,8.10
2022-09-28T14:55:27.275Z,8.20
2022-09-28T14:57:58.772Z,8.20
2022-09-28T15:00:28.563Z,8.30
2022-09-28T15:03:12.280Z,8.50
2022-09-28T15:05:44.000Z,8.50
2022-09-28T15:08:11.668Z,8.80
2022-09-28T15:10:43.121Z,8.80
2022-09-28T15:13:23.828Z,8.80
2022-09-28T15:15:58.475Z,8.90
2022-09-28T15:18:52.099Z,9.10
2022-09-28T15:21:19.169Z,9.20
2022-09-28T15:23:46.773Z,9.30
2022-09-28T15:26:23.611Z,9.40
2022-09-28T15:28:52.285Z,9.50
2022-09-28T15:31:22.898Z,9.50
2022-09-28T15:33:50.973Z,9.50
2022-09-28T15:36:21.324Z,9.30
2022-09-28T15:38:55.011Z,9.20
2022-09-28T15:41:23.206Z,9.10
2022-09-28T15:44:06.358Z,9.00
2022-09-28T15:46:34.684Z,9.10
2022-09-28T15:49:02.272Z,9.30
2022-09-28T15:51:44.711Z,9.30
2022-09-28T15:54:15.364Z,9.40
2022-09-28T15:56:59.338Z,9.50
2022-09-28T15:59:32.753Z,9.60
2022-09-28T16:02:10.556Z,9.50
2022-09-28T16:04:42.840Z,9.40
2022-09-28T16:07:30.459Z,9.50
2022-09-28T16:10:21.186Z,9.50
2022-09-28T16:12:51.088Z,9.30
2022-09-28T16:15:23.285Z,9.30
2022-09-28T16:17:52.261Z,9.20
2022-09-28T16:20:27.692Z,9.30
2022-09-28T16:22:59.179Z,9.30
2022-09-28T16:25:27.148Z,9.30
2022-09-28T16:27:56.283Z,9.30
2022-09-28T16:30:26.276Z,9.20
2022-09-28T16:32:58.451Z,9.10
2022-09-28T16:35:28.655Z,9.10
2022-09-28T16:38:02.132Z,9.00
2022-09-28T16:40:30.685Z,8.90
2022-09-28T16:43:00.931Z,8.80
2022-09-28T16:45:29.143Z,8.80
2022-09-28T16:47:56.426Z,8.70
2022-09-28T16:50:25.093Z,8.70
2022-09-28T16:53:02.727Z,8.60
2022-09-28T16:55:40.014Z,8.50
2022-09-28T16:58:07.697Z,8.40
2022-09-28T17:00:36.460Z,8.30
2022-09-28T17:03:12.856Z,8.20
2022-09-28T17:05:40.269Z,8.10
2022-09-28T17:08:10.790Z,8.00
2022-09-28T17:11:02.578Z,8.00
2022-09-28T17:13:31.584Z,7.90
2022-09-28T17:16:00.215Z,7.80
2022-09-28T17:18:27.591Z,7.70
2022-09-28T17:20:56.832Z,7.60
2022-09-28T17:23:23.621Z,7.60
2022-09-28T17:25:50.431Z,7.50
2022-09-28T17:28:21.242Z,7.50
2022-09-28T17:30:48.358Z,7.50
2022-09-28T17:33:16.474Z,7.50
2022-09-28T17:35:44.775Z,7.40
2022-09-28T17:38:12.185Z,7.30
2022-09-28T17:40:39.550Z,7.20
2022-09-28T17:43:07.370Z,7.20
2022-09-28T17:45:36.258Z,7.20
2022-09-28T17:48:03.054Z,7.20
2022-09-28T17:50:33.815Z,7.10
2022-09-28T17:53:01.141Z,7.00
2022-09-28T17:55:29.015Z,6.90
2022-09-28T17:57:56.544Z,6.80
2022-09-28T18:00:23.738Z,6.70
2022-09-28T18:02:51.193Z,6.60
2022-09-28T18:05:18.583Z,6.50
2022-09-28T18:07:47.865Z,6.40
2022-09-28T18:10:16.981Z,6.40
2022-09-28T18:12:44.364Z,6.40
2022-09-28T18:15:12.122Z,6.40
2022-09-28T18:17:39.717Z,6.40
2022-09-28T18:20:10.135Z,6.40
2022-09-28T18:22:36.961Z,6.40
2022-09-28T18:25:06.223Z,6.30
2022-09-28T18:27:33.608Z,6.20
2022-09-28T18:30:00.403Z,6.10
2022-09-28T18:32:27.386Z,6.00
2022-09-28T18:34:54.992Z,6.00
2022-09-28T18:37:21.735Z,5.90
2022-09-28T18:39:48.438Z,5.90
2022-09-28T18:42:18.595Z,5.90
2022-09-28T18:44:45.341Z,5.90
2022-09-28T18:47:12.975Z,5.90
2022-09-28T18:49:44.677Z,5.80
2022-09-28T18:52:13.259Z,6.00
2022-09-28T18:54:40.597Z,6.20
2022-09-28T18:57:07.376Z,6.10
2022-09-28T18:59:35.545Z,6.30
2022-09-28T19:02:03.051Z,6.20
2022-09-28T19:04:29.905Z,6.30
2022-09-28T19:06:56.707Z,6.20
2022-09-28T19:09:24.121Z,6.20
2022-09-28T19:11:51.023Z,6.10
2022-09-28T19:14:17.855Z,6.10
2022-09-28T19:16:47.832Z,6.10
2022-09-28T19:19:16.557Z,6.00
2022-09-28T19:21:43.778Z,5.90
2022-09-28T19:24:13.629Z,5.90
2022-09-28T19:26:40.923Z,5.80
2022-09-28T19:29:10.338Z,5.90
2022-09-28T19:31:38.100Z,5.90
2022-09-28T19:34:08.205Z,5.90
2022-09-28T19:36:35.917Z,5.90
2022-09-28T19:39:03.914Z,5.80
2022-09-28T19:41:39.011Z,5.80
2022-09-28T19:44:10.393Z,5.70
2022-09-28T19:46:37.876Z,5.70
2022-09-28T19:49:08.103Z,5.60
2022-09-28T19:51:37.151Z,5.80
2022-09-28T19:54:05.404Z,5.80
2022-09-28T19:56:32.291Z,5.60
2022-09-28T19:59:00.564Z,5.60
2022-09-28T20:01:28.098Z,5.50
2022-09-28T20:03:55.208Z,5.50
2022-09-28T20:06:24.592Z,5.40
2022-09-28T20:08:51.935Z,5.30
2022-09-28T20:11:19.719Z,5.30
2022-09-28T20:13:49.560Z,5.20
2022-09-28T20:16:18.386Z,5.20
2022-09-28T20:18:46.333Z,5.10
2022-09-28T20:21:18.294Z,5.00
2022-09-28T20:23:47.393Z,5.00
2022-09-28T20:26:15.411Z,5.00
2022-09-28T20:28:42.616Z,5.00
2022-09-28T20:31:12.277Z,4.90
2022-09-28T20:33:40.164Z,4.90
2022-09-28T20:36:08.634Z,5.00
2022-09-28T20:38:36.036Z,4.90
2022-09-28T20:41:05.113Z,4.90
2022-09-28T20:43:31.831Z,4.90
2022-09-28T20:45:58.873Z,4.70
2022-09-28T20:48:26.598Z,4.80
2022-09-28T20:50:58.423Z,4.90
2022-09-28T20:53:25.403Z,4.90
2022-09-28T20:55:58.124Z,4.90
2022-09-28T20:58:26.448Z,4.70
2022-09-28T21:01:06.404Z,4.60
2022-09-28T21:03:34.858Z,4.70
2022-09-28T21:06:02.437Z,4.60
2022-09-28T21:08:29.426Z,4.70
2022-09-28T21:10:56.363Z,4.70
2022-09-28T21:13:27.000Z,4.60
2022-09-28T21:15:53.882Z,4.50
2022-09-28T21:18:22.193Z,4.40
2022-09-28T21:20:51.272Z,4.30
2022-09-28T21:23:22.705Z,4.30
2022-09-28T21:26:01.607Z,4.30
2022-09-28T21:28:29.812Z,4.20
2022-09-28T21:30:57.885Z,4.20
2022-09-28T21:33:24.695Z,4.20
2022-09-28T21:35:51.552Z,4.10
2022-09-28T21:38:19.138Z,4.00
2022-09-28T21:40:45.904Z,4.00
2022-09-28T21:43:12.922Z,4.00
2022-09-28T21:45:41.592Z,4.00
2022-09-28T21:48:08.324Z,4.00
2022-09-28T21:50:35.064Z,4.10
2022-09-28T21:53:02.380Z,4.10
2022-09-28T21:55:29.120Z,3.90
2022-09-28T21:57:55.878Z,3.80
2022-09-28T22:00:23.521Z,3.90
2022-09-28T22:02:51.626Z,3.90
2022-09-28T22:05:18.765Z,3.90
2022-09-28T22:07:46.135Z,3.90
2022-09-28T22:10:17.156Z,3.90
2022-09-28T22:12:45.464Z,3.80
2022-09-28T22:15:12.809Z,4.10
2022-09-28T22:17:39.559Z,4.10
2022-09-28T22:20:08.440Z,4.20
2022-09-28T22:22:35.777Z,4.10
2022-09-28T22:25:02.539Z,4.20
2022-09-28T22:27:30.323Z,4.20
2022-09-28T22:29:57.820Z,4.10
2022-09-28T22:32:24.580Z,4.00
2022-09-28T22:34:51.495Z,4.00
2022-09-28T22:37:20.192Z,4.00
2022-09-28T22:39:46.950Z,4.10
2022-09-28T22:42:13.897Z,4.20
2022-09-28T22:44:41.255Z,4.20
2022-09-28T22:47:08.007Z,4.10
2022-09-28T22:49:34.717Z,4.10
2022-09-28T22:52:02.079Z,4.10
2022-09-28T22:54:30.132Z,4.00
2022-09-28T22:56:56.902Z,3.90
2022-09-28T22:59:24.340Z,3.90
2022-09-28T23:01:51.103Z,3.80
2022-09-28T23:04:17.987Z,3.90
2022-09-28T23:06:45.312Z,3.80
2022-09-28T23:09:12.067Z,3.90
2022-09-28T23:11:40.241Z,3.90
2022-09-28T23:14:11.014Z,3.90
2022-09-28T23:16:38.868Z,4.00
2022-09-28T23:19:05.984Z,4.00
2022-09-28T23:21:33.307Z,4.00
2022-09-28T23:24:00.757Z,3.90
2022-09-28T23:26:29.369Z,3.80
2022-09-28T23:28:59.083Z,3.70
2022-09-28T23:31:26.502Z,3.60
2022-09-28T23:33:57.119Z,3.60
2022-09-28T23:36:24.582Z,3.30
2022-09-28T23:38:51.314Z,3.40
2022-09-28T23:41:18.051Z,3.50
2022-09-28T23:43:45.417Z,3.60
2022-09-28T23:46:17.230Z,3.60
2022-09-28T23:48:47.785Z,3.60
2022-09-28T23:51:14.499Z,3.50
2022-09-28T23:53:41.244Z,3.50
2022-09-28T23:56:08.670Z,3.40
2022-09-28T23:58:35.395Z,3.40
